KBLM

Monmouth Executive Airport

Belmar/Farmingdale, New Jersey, USA
METAR KBLM 221456Z AUTO 14009KT 10SM OVC075 19/11 A3017 RMK AO2 SLP220 6//// T01890111 58003
Observed Flight Rules
May-22 @ 14:56 UTC (23 minutes ago) Visual Flight Rules
Wind Visibility Clouds
140° at 9 knots 10 miles
  • Overcast at 7,500' AGL
Temperatures Readings
Current 19°C / 66°F
Dewpoint 11°C / 52°F
Humidity 60%
Altimeter 30.17" Hg
Pressure 1022 hPa
Elevation 48
METAR KBLM 221456Z AUTO 14009KT 10SM OVC075 19/11 A3017 RMK AO2 SLP220 6//// T01890111 58003
Observed Flight Rules
May-22 @ 14:56 UTC
(23 minutes ago)
VFR
Wind Visibility
140° at 9 knots 10 miles
Clouds
  • Overcast at 7,500' AGL
Temperature Dewpoint
19°C / 66°F 11°C / 52°F
Humidity Altimeter Pressure
60% 30.17" Hg 1022 hPa